createdAt,value
2023-03-21T00:00:43.818Z,73.38
2023-03-21T00:03:10.945Z,73.41
2023-03-21T00:05:42.102Z,73.38
2023-03-21T00:08:09.032Z,73.55
2023-03-21T00:10:43.611Z,73.38
2023-03-21T00:13:13.069Z,73.67
2023-03-21T00:16:03.525Z,73.83
2023-03-21T00:18:31.705Z,73.79
2023-03-21T00:21:35.516Z,73.83
2023-03-21T00:23:48.702Z,73.86
2023-03-21T00:26:17.207Z,73.82
2023-03-21T00:28:43.701Z,74.20
2023-03-21T00:31:10.794Z,73.95
2023-03-21T00:33:39.058Z,73.89
2023-03-21T00:36:07.045Z,74.16
2023-03-21T00:38:34.602Z,74.25
2023-03-21T00:41:21.038Z,74.26
2023-03-21T00:43:50.077Z,74.11
2023-03-21T00:46:16.466Z,74.46
2023-03-21T00:48:42.964Z,74.21
2023-03-21T00:51:15.635Z,74.50
2023-03-21T00:53:42.796Z,74.50
2023-03-21T00:56:09.625Z,74.61
2023-03-21T00:58:36.315Z,74.50
2023-03-21T01:01:04.443Z,74.62
2023-03-21T01:03:31.043Z,74.54
2023-03-21T01:06:06.962Z,74.96
2023-03-21T01:08:50.525Z,74.75
2023-03-21T01:11:20.553Z,74.59
2023-03-21T01:13:54.735Z,74.82
2023-03-21T01:16:22.457Z,74.89
2023-03-21T01:18:49.155Z,74.83
2023-03-21T01:21:16.156Z,74.95
2023-03-21T01:23:43.086Z,74.99
2023-03-21T01:26:11.092Z,75.06
2023-03-21T01:28:39.425Z,75.11
2023-03-21T01:31:06.563Z,74.89
2023-03-21T01:33:34.493Z,75.18
2023-03-21T01:36:12.422Z,75.26
2023-03-21T01:38:39.317Z,75.33
2023-03-21T01:41:17.023Z,75.46
2023-03-21T01:43:46.099Z,75.39
2023-03-21T01:46:47.829Z,75.26
2023-03-21T01:49:40.950Z,75.69
2023-03-21T01:52:15.350Z,75.61
2023-03-21T01:54:47.678Z,75.78
2023-03-21T01:57:21.994Z,75.75
2023-03-21T01:59:51.147Z,75.86
2023-03-21T02:02:29.893Z,75.86
2023-03-21T02:04:58.153Z,75.97
2023-03-21T02:07:36.332Z,76.12
2023-03-21T02:10:07.989Z,76.19
2023-03-21T02:12:34.556Z,76.15
2023-03-21T02:15:01.037Z,75.96
2023-03-21T02:17:59.483Z,76.18
2023-03-21T02:20:39.642Z,76.03
2023-03-21T02:23:44.134Z,76.17
2023-03-21T02:26:43.920Z,76.49
2023-03-21T02:29:39.868Z,76.27
2023-03-21T02:32:34.943Z,76.22
2023-03-21T02:35:54.179Z,76.14
2023-03-21T02:39:07.943Z,76.28
2023-03-21T02:42:07.552Z,76.32
2023-03-21T02:44:45.176Z,76.40
2023-03-21T02:47:19.661Z,76.42
2023-03-21T02:49:56.190Z,76.39
2023-03-21T02:52:37.762Z,76.36
2023-03-21T02:55:13.800Z,76.58
2023-03-21T02:57:43.920Z,76.43
2023-03-21T03:00:17.862Z,76.58
2023-03-21T03:02:45.478Z,76.35
2023-03-21T03:05:22.279Z,76.54
2023-03-21T03:08:07.414Z,76.69
2023-03-21T03:11:04.426Z,76.80
2023-03-21T03:14:31.509Z,76.91
2023-03-21T03:17:20.339Z,77.15
2023-03-21T03:20:15.532Z,76.88
2023-03-21T03:23:08.433Z,77.13
2023-03-21T03:25:46.183Z,76.98
2023-03-21T03:28:15.578Z,77.08
2023-03-21T03:30:54.231Z,77.34
2023-03-21T03:33:26.636Z,77.11
2023-03-21T03:36:04.824Z,77.13
2023-03-21T03:38:33.082Z,77.41
2023-03-21T03:41:05.274Z,77.24
2023-03-21T03:43:41.901Z,77.24
2023-03-21T03:46:17.296Z,77.06
2023-03-21T03:48:53.116Z,77.19
2023-03-21T03:51:49.928Z,77.49
2023-03-21T03:54:23.445Z,77.42
2023-03-21T03:56:50.677Z,77.50
2023-03-21T03:59:23.396Z,77.24
2023-03-21T04:01:49.789Z,77.53
2023-03-21T04:04:17.073Z,77.44
2023-03-21T04:06:45.439Z,77.66
2023-03-21T04:09:20.482Z,77.73
2023-03-21T04:11:49.820Z,77.65
2023-03-21T04:14:16.824Z,77.70
2023-03-21T04:16:43.202Z,77.73
2023-03-21T04:19:09.614Z,77.90
2023-03-21T04:21:36.553Z,77.77
2023-03-21T04:24:03.125Z,77.97
2023-03-21T04:26:32.983Z,77.85
2023-03-21T04:29:00.844Z,77.92
2023-03-21T04:31:30.980Z,78.19
2023-03-21T04:33:58.324Z,78.11
2023-03-21T04:36:27.405Z,78.31
2023-03-21T04:38:54.848Z,78.27
2023-03-21T04:41:21.329Z,78.38
2023-03-21T04:43:48.415Z,78.50
2023-03-21T04:46:15.529Z,78.38
2023-03-21T04:48:42.121Z,78.52
2023-03-21T04:51:08.522Z,78.81
2023-03-21T04:53:35.305Z,78.48
2023-03-21T04:56:01.749Z,78.77
2023-03-21T04:58:28.229Z,78.83
2023-03-21T05:00:54.763Z,78.84
2023-03-21T05:03:21.812Z,78.64
2023-03-21T05:05:48.500Z,78.73
2023-03-21T05:08:15.997Z,78.67
2023-03-21T05:10:42.978Z,78.92
2023-03-21T05:13:09.408Z,78.84
2023-03-21T05:15:36.044Z,79.03
2023-03-21T05:18:11.334Z,78.73
2023-03-21T05:20:42.933Z,78.73
2023-03-21T05:23:12.807Z,78.70
2023-03-21T05:25:40.349Z,79.08
2023-03-21T05:28:07.793Z,78.57
2023-03-21T05:30:34.598Z,78.65
2023-03-21T05:33:01.125Z,78.93
2023-03-21T05:35:28.082Z,79.09
2023-03-21T05:37:54.657Z,79.09
2023-03-21T05:40:21.520Z,79.10
2023-03-21T05:42:48.481Z,79.09
2023-03-21T05:45:15.881Z,79.37
2023-03-21T05:47:42.326Z,79.12
2023-03-21T05:50:10.735Z,79.10
2023-03-21T05:52:37.132Z,79.31
2023-03-21T05:55:03.925Z,79.18
2023-03-21T05:57:30.667Z,79.17
2023-03-21T05:59:57.001Z,79.25
2023-03-21T06:02:23.591Z,79.28
2023-03-21T06:04:50.062Z,79.14
2023-03-21T06:07:16.503Z,78.85
2023-03-21T06:09:42.872Z,79.01
2023-03-21T06:12:09.351Z,79.08
2023-03-21T06:14:35.940Z,78.91
2023-03-21T06:17:02.325Z,79.03
2023-03-21T06:19:28.684Z,79.10
2023-03-21T06:21:55.271Z,79.28
2023-03-21T06:24:21.801Z,79.14
2023-03-21T06:26:48.355Z,79.27
2023-03-21T06:29:14.877Z,79.04
2023-03-21T06:31:41.357Z,79.06
2023-03-21T06:34:07.966Z,78.93
2023-03-21T06:36:34.424Z,79.06
2023-03-21T06:39:00.890Z,78.95
2023-03-21T06:41:27.305Z,78.90
2023-03-21T06:43:53.817Z,79.03
2023-03-21T06:46:20.471Z,78.72
2023-03-21T06:48:47.000Z,78.81
2023-03-21T06:51:15.269Z,78.89
2023-03-21T06:53:41.687Z,79.10
2023-03-21T06:56:12.517Z,78.59
2023-03-21T06:58:40.776Z,78.63
2023-03-21T07:01:08.074Z,78.50
2023-03-21T07:03:34.958Z,78.55
2023-03-21T07:06:13.742Z,78.70
2023-03-21T07:08:41.211Z,78.50
2023-03-21T07:11:09.023Z,78.60
2023-03-21T07:13:35.569Z,78.65
2023-03-21T07:16:02.095Z,78.43
2023-03-21T07:18:28.591Z,78.49
2023-03-21T07:20:54.973Z,78.45
2023-03-21T07:23:23.074Z,78.21
2023-03-21T07:25:50.894Z,77.90
2023-03-21T07:28:17.935Z,77.82
2023-03-21T07:30:45.784Z,77.42
2023-03-21T07:33:12.867Z,77.19
2023-03-21T07:35:39.647Z,77.11
2023-03-21T07:38:06.624Z,76.78
2023-03-21T07:40:33.404Z,76.54
2023-03-21T07:43:00.121Z,76.27
2023-03-21T07:45:27.340Z,75.84
2023-03-21T07:47:54.369Z,75.94
2023-03-21T07:50:21.592Z,75.72
2023-03-21T07:52:48.770Z,75.79
2023-03-21T07:55:17.208Z,75.38
2023-03-21T07:57:43.812Z,75.30
2023-03-21T08:00:10.989Z,75.30
2023-03-21T08:02:37.532Z,74.95
2023-03-21T08:05:04.168Z,74.72
2023-03-21T08:07:30.677Z,74.69
2023-03-21T08:09:57.195Z,74.32
2023-03-21T08:12:23.614Z,74.05
2023-03-21T08:14:50.448Z,73.95
2023-03-21T08:17:16.873Z,73.75
2023-03-21T08:19:43.240Z,73.30
2023-03-21T08:22:10.872Z,73.30
2023-03-21T08:24:37.359Z,73.22
2023-03-21T08:27:03.845Z,72.73
2023-03-21T08:29:30.341Z,72.75
2023-03-21T08:31:58.048Z,72.33
2023-03-21T08:34:25.812Z,72.26
2023-03-21T08:36:52.338Z,72.40
2023-03-21T08:39:18.813Z,71.87
2023-03-21T08:41:45.330Z,71.76
2023-03-21T08:44:11.844Z,71.45
2023-03-21T08:46:38.359Z,71.41
2023-03-21T08:49:05.285Z,71.35
2023-03-21T08:51:31.772Z,70.88
2023-03-21T08:53:58.259Z,70.57
2023-03-21T08:56:24.834Z,70.30
2023-03-21T08:58:51.232Z,69.96
2023-03-21T09:01:20.061Z,69.74
2023-03-21T09:03:46.784Z,69.70
2023-03-21T09:06:14.242Z,69.14
2023-03-21T09:08:46.199Z,68.71
2023-03-21T09:11:12.630Z,68.43
2023-03-21T09:13:40.743Z,68.26
2023-03-21T09:16:07.688Z,67.41
2023-03-21T09:18:48.720Z,66.85
2023-03-21T09:21:18.160Z,66.33
2023-03-21T09:23:44.999Z,65.97
2023-03-21T09:26:12.550Z,65.77
2023-03-21T09:28:39.180Z,65.60
2023-03-21T09:31:06.473Z,65.84
2023-03-21T09:33:33.360Z,65.82
2023-03-21T09:36:00.488Z,65.23
2023-03-21T09:38:31.404Z,64.41
2023-03-21T09:41:10.845Z,63.83
2023-03-21T09:43:58.778Z,64.06
2023-03-21T09:46:38.004Z,63.14
2023-03-21T09:49:13.101Z,62.77
2023-03-21T09:51:45.716Z,62.54
2023-03-21T09:54:36.063Z,62.57
2023-03-21T09:57:12.161Z,62.28
2023-03-21T09:59:42.867Z,61.84
2023-03-21T10:02:32.349Z,61.10
2023-03-21T10:05:00.239Z,60.84
2023-03-21T10:07:30.891Z,60.48
2023-03-21T10:10:00.636Z,60.65
2023-03-21T10:12:30.644Z,60.74
2023-03-21T10:15:00.745Z,60.71
2023-03-21T10:17:40.786Z,60.69
2023-03-21T10:20:11.988Z,60.72
2023-03-21T10:22:38.867Z,60.72
2023-03-21T10:25:07.728Z,60.87
2023-03-21T10:27:36.973Z,60.30
2023-03-21T10:30:07.809Z,60.48
2023-03-21T10:32:35.004Z,59.96
2023-03-21T10:35:04.962Z,59.61
2023-03-21T10:37:32.494Z,59.18
2023-03-21T10:39:59.350Z,58.23
2023-03-21T10:42:32.705Z,57.05
2023-03-21T10:44:59.421Z,56.65
2023-03-21T10:47:34.108Z,55.70
2023-03-21T10:50:11.372Z,55.70
2023-03-21T10:52:45.515Z,55.34
2023-03-21T10:55:22.685Z,55.12
2023-03-21T10:57:55.205Z,54.97
2023-03-21T11:00:25.829Z,54.94
2023-03-21T11:02:54.284Z,54.82
2023-03-21T11:05:23.277Z,55.23
2023-03-21T11:08:04.327Z,55.36
2023-03-21T11:10:34.409Z,55.26
2023-03-21T11:13:17.936Z,54.81
2023-03-21T11:15:55.284Z,54.67
2023-03-21T11:18:30.043Z,55.09
2023-03-21T11:21:05.177Z,55.16
2023-03-21T11:23:34.099Z,54.58
2023-03-21T11:26:02.460Z,54.48
2023-03-21T11:28:41.604Z,54.82
2023-03-21T11:31:09.370Z,54.71
2023-03-21T11:33:55.271Z,54.82
2023-03-21T11:36:21.869Z,54.93
2023-03-21T11:38:51.274Z,54.92
2023-03-21T11:41:24.948Z,55.12
2023-03-21T11:43:53.026Z,54.70
2023-03-21T11:46:31.497Z,54.88
2023-03-21T11:48:59.578Z,55.28
2023-03-21T11:51:39.764Z,55.45
2023-03-21T11:54:45.492Z,55.41
2023-03-21T11:57:23.257Z,55.49
2023-03-21T12:00:05.005Z,55.20
2023-03-21T12:02:57.601Z,55.41
2023-03-21T12:05:33.572Z,55.26
2023-03-21T12:08:14.922Z,55.09
2023-03-21T12:10:53.341Z,55.15
2023-03-21T12:13:28.711Z,55.08
2023-03-21T12:16:02.152Z,55.21
2023-03-21T12:18:47.533Z,55.23
2023-03-21T12:21:25.213Z,55.37
2023-03-21T12:24:18.452Z,55.34
2023-03-21T12:26:59.889Z,55.25
2023-03-21T12:29:32.424Z,55.00
2023-03-21T12:32:11.000Z,55.08
2023-03-21T12:34:52.673Z,55.04
2023-03-21T12:38:06.726Z,54.94
2023-03-21T12:40:51.644Z,55.03
2023-03-21T12:43:39.883Z,54.76
2023-03-21T12:46:14.978Z,54.79
2023-03-21T12:48:54.030Z,55.10
2023-03-21T12:51:26.494Z,54.76
2023-03-21T12:53:59.853Z,54.53
2023-03-21T12:56:37.074Z,54.80
2023-03-21T12:59:19.831Z,54.58
2023-03-21T13:01:51.449Z,54.46
2023-03-21T13:04:36.786Z,54.37
2023-03-21T13:07:08.895Z,54.38
2023-03-21T13:09:40.032Z,54.17
2023-03-21T13:12:29.124Z,53.89
2023-03-21T13:15:15.347Z,53.40
2023-03-21T13:17:56.092Z,53.45
2023-03-21T13:20:28.411Z,52.87
2023-03-21T13:22:55.162Z,53.26
2023-03-21T13:25:24.480Z,53.18
2023-03-21T13:28:01.046Z,53.27
2023-03-21T13:30:30.280Z,53.53
2023-03-21T13:33:29.296Z,53.61
2023-03-21T13:36:06.993Z,53.71
2023-03-21T13:38:36.402Z,53.70
2023-03-21T13:41:11.596Z,53.88
2023-03-21T13:44:03.070Z,53.70
2023-03-21T13:46:30.170Z,53.48
2023-03-21T13:49:09.742Z,53.75
2023-03-21T13:51:36.189Z,53.58
2023-03-21T13:54:07.091Z,53.61
2023-03-21T13:56:46.372Z,53.86
2023-03-21T13:59:35.187Z,53.83
2023-03-21T14:02:32.989Z,53.72
2023-03-21T14:05:17.411Z,53.75
2023-03-21T14:07:47.451Z,54.03
2023-03-21T14:10:33.527Z,54.23
2023-03-21T14:13:01.950Z,54.18
2023-03-21T14:15:43.714Z,54.08
2023-03-21T14:18:27.894Z,54.03
2023-03-21T14:21:02.364Z,54.08
2023-03-21T14:23:30.092Z,54.02
2023-03-21T14:25:56.549Z,54.37
2023-03-21T14:28:26.164Z,53.97
2023-03-21T14:30:56.061Z,54.24
2023-03-21T14:33:25.901Z,53.99
2023-03-21T14:35:55.623Z,54.09
2023-03-21T14:38:27.597Z,53.93
2023-03-21T14:40:55.958Z,53.88
2023-03-21T14:43:23.917Z,53.92
2023-03-21T14:45:53.105Z,53.75
2023-03-21T14:48:20.393Z,53.53
2023-03-21T14:50:46.894Z,53.53
2023-03-21T14:53:20.351Z,53.54
2023-03-21T14:56:00.599Z,53.39
2023-03-21T14:58:28.299Z,53.69
2023-03-21T15:00:59.976Z,53.48
2023-03-21T15:03:27.972Z,53.64
2023-03-21T15:05:58.358Z,53.83
2023-03-21T15:08:27.739Z,53.80
2023-03-21T15:11:28.358Z,53.84
2023-03-21T15:13:55.848Z,53.72
2023-03-21T15:16:23.086Z,53.62
2023-03-21T15:18:50.561Z,53.42
2023-03-21T15:21:23.319Z,53.65
2023-03-21T15:23:56.208Z,53.83
2023-03-21T15:26:25.750Z,53.85
2023-03-21T15:28:58.288Z,53.85
2023-03-21T15:31:30.506Z,53.99
2023-03-21T15:33:57.499Z,54.13
2023-03-21T15:36:43.098Z,54.27
2023-03-21T15:39:15.907Z,54.49
2023-03-21T15:41:55.749Z,54.41
2023-03-21T15:44:22.305Z,54.47
2023-03-21T15:46:51.192Z,54.70
2023-03-21T15:49:21.148Z,54.78
2023-03-21T15:51:52.334Z,54.88
2023-03-21T15:54:24.780Z,54.78
2023-03-21T15:57:04.626Z,55.30
2023-03-21T15:59:36.862Z,55.46
2023-03-21T16:02:04.437Z,55.44
2023-03-21T16:04:31.239Z,55.53
2023-03-21T16:06:59.401Z,55.67
2023-03-21T16:09:26.453Z,55.68
2023-03-21T16:11:58.566Z,55.69
2023-03-21T16:14:29.353Z,55.97
2023-03-21T16:16:57.231Z,55.95
2023-03-21T16:19:24.583Z,55.94
2023-03-21T16:21:52.581Z,56.10
2023-03-21T16:24:19.002Z,56.43
2023-03-21T16:26:47.832Z,56.63
2023-03-21T16:29:15.635Z,56.64
2023-03-21T16:31:42.827Z,56.79
2023-03-21T16:34:09.344Z,57.01
2023-03-21T16:36:38.586Z,57.16
2023-03-21T16:39:22.048Z,57.30
2023-03-21T16:41:50.491Z,57.38
2023-03-21T16:44:19.048Z,57.53
2023-03-21T16:46:47.141Z,57.70
2023-03-21T16:49:25.820Z,57.92
2023-03-21T16:51:54.992Z,58.16
2023-03-21T16:54:22.121Z,58.08
2023-03-21T16:56:54.498Z,58.45
2023-03-21T16:59:21.452Z,58.36
2023-03-21T17:01:48.711Z,58.54
2023-03-21T17:04:19.966Z,58.75
2023-03-21T17:06:51.908Z,58.77
2023-03-21T17:09:22.420Z,59.15
2023-03-21T17:11:49.533Z,59.08
2023-03-21T17:14:17.962Z,59.19
2023-03-21T17:16:45.637Z,59.74
2023-03-21T17:19:20.678Z,59.67
2023-03-21T17:21:47.257Z,59.71
2023-03-21T17:24:13.856Z,59.82
2023-03-21T17:26:41.174Z,59.83
2023-03-21T17:29:08.053Z,59.86
2023-03-21T17:31:37.144Z,60.15
2023-03-21T17:34:04.576Z,60.36
2023-03-21T17:36:38.790Z,60.40
2023-03-21T17:39:07.483Z,60.68
2023-03-21T17:41:34.338Z,60.75
2023-03-21T17:44:01.113Z,60.83
2023-03-21T17:46:29.073Z,61.15
2023-03-21T17:48:56.766Z,61.02
2023-03-21T17:51:26.090Z,61.22
2023-03-21T17:53:52.673Z,61.18
2023-03-21T17:56:29.945Z,61.25
2023-03-21T17:59:01.668Z,61.37
2023-03-21T18:01:30.626Z,61.39
2023-03-21T18:03:58.396Z,61.56
2023-03-21T18:06:26.632Z,61.66
2023-03-21T18:08:54.261Z,61.56
2023-03-21T18:11:22.099Z,61.79
2023-03-21T18:13:48.866Z,61.74
2023-03-21T18:16:18.477Z,61.97
2023-03-21T18:18:46.332Z,62.06
2023-03-21T18:21:14.079Z,62.07
2023-03-21T18:23:41.645Z,62.21
2023-03-21T18:26:09.990Z,62.37
2023-03-21T18:28:39.658Z,62.42
2023-03-21T18:31:15.554Z,62.28
2023-03-21T18:33:45.043Z,62.46
2023-03-21T18:36:14.394Z,62.70
2023-03-21T18:38:42.052Z,62.69
2023-03-21T18:41:08.551Z,62.68
2023-03-21T18:46:23.692Z,62.83
2023-03-21T18:48:51.788Z,62.99
2023-03-21T18:51:19.240Z,62.81
2023-03-21T18:53:45.786Z,63.20
2023-03-21T18:56:40.771Z,63.23
2023-03-21T18:58:59.249Z,63.33
2023-03-21T19:01:26.274Z,63.41
2023-03-21T19:04:16.537Z,63.51
2023-03-21T19:06:46.646Z,63.38
2023-03-21T19:09:14.341Z,63.56
2023-03-21T19:11:44.357Z,63.65
2023-03-21T19:14:13.141Z,63.64
2023-03-21T19:17:12.098Z,63.78
2023-03-21T19:19:27.725Z,64.05
2023-03-21T19:21:54.323Z,64.04
2023-03-21T19:24:27.730Z,64.06
2023-03-21T19:26:54.813Z,63.97
2023-03-21T19:29:22.029Z,64.15
2023-03-21T19:31:50.958Z,64.13
2023-03-21T19:34:17.782Z,64.44
2023-03-21T19:36:46.146Z,64.49
2023-03-21T19:39:21.839Z,64.32
2023-03-21T19:41:48.919Z,64.46
2023-03-21T19:44:16.808Z,64.47
2023-03-21T19:46:43.309Z,64.57
2023-03-21T19:49:10.975Z,64.68
2023-03-21T19:51:37.667Z,65.07
2023-03-21T19:54:05.620Z,65.09
2023-03-21T19:56:34.481Z,65.21
2023-03-21T19:59:02.797Z,65.44
2023-03-21T20:01:29.709Z,65.54
2023-03-21T20:03:56.174Z,65.81
2023-03-21T20:06:23.937Z,65.98
2023-03-21T20:09:41.315Z,65.96
2023-03-21T20:11:38.025Z,65.96
2023-03-21T20:14:05.322Z,65.97
2023-03-21T20:16:36.711Z,66.29
2023-03-21T20:19:05.655Z,66.37
2023-03-21T20:21:41.118Z,66.47
2023-03-21T20:24:12.640Z,66.47
2023-03-21T20:26:39.457Z,66.51
2023-03-21T20:29:48.453Z,66.58
2023-03-21T20:31:53.110Z,66.75
2023-03-21T20:34:19.628Z,66.83
2023-03-21T20:36:46.240Z,66.89
2023-03-21T20:39:12.681Z,66.87
2023-03-21T20:41:39.450Z,67.14
2023-03-21T20:44:39.527Z,67.12
2023-03-21T20:46:53.471Z,66.91
2023-03-21T20:49:22.901Z,67.14
2023-03-21T20:54:36.799Z,67.10
2023-03-21T20:57:04.647Z,67.33
2023-03-21T20:59:31.133Z,67.23
2023-03-21T21:01:57.906Z,67.32
2023-03-21T21:04:44.314Z,67.23
2023-03-21T21:07:15.797Z,67.32
2023-03-21T21:09:44.140Z,67.46
2023-03-21T21:12:11.519Z,67.33
2023-03-21T21:14:38.897Z,67.44
2023-03-21T21:17:23.134Z,67.66
2023-03-21T21:19:52.161Z,67.59
2023-03-21T21:22:19.122Z,67.63
2023-03-21T21:24:45.655Z,67.77
2023-03-21T21:27:12.121Z,67.71
2023-03-21T21:29:38.775Z,67.95
2023-03-21T21:32:05.326Z,68.02
2023-03-21T21:34:32.352Z,68.19
2023-03-21T21:36:58.858Z,68.29
2023-03-21T21:39:26.453Z,68.34
2023-03-21T21:41:53.783Z,68.37
2023-03-21T21:44:20.679Z,68.61
2023-03-21T21:46:47.178Z,68.43
2023-03-21T21:49:13.642Z,68.29
2023-03-21T21:51:41.863Z,68.40
2023-03-21T21:54:08.441Z,68.61
2023-03-21T21:56:36.947Z,68.75
2023-03-21T21:59:04.269Z,68.91
2023-03-21T22:01:31.792Z,68.80
2023-03-21T22:04:05.976Z,68.90
2023-03-21T22:06:34.027Z,69.00
2023-03-21T22:09:01.028Z,68.97
2023-03-21T22:11:27.570Z,68.97
2023-03-21T22:13:54.044Z,68.95
2023-03-21T22:16:20.593Z,69.14
2023-03-21T22:18:47.322Z,69.04
2023-03-21T22:21:13.723Z,69.37
2023-03-21T22:23:41.370Z,69.65
2023-03-21T22:26:08.678Z,69.59
2023-03-21T22:28:36.175Z,69.46
2023-03-21T22:31:11.110Z,69.56
2023-03-21T22:33:37.566Z,69.58
2023-03-21T22:36:04.746Z,69.71
2023-03-21T22:38:31.177Z,69.72
2023-03-21T22:40:59.505Z,69.63
2023-03-21T22:43:26.621Z,70.01
2023-03-21T22:45:53.348Z,69.87
2023-03-21T22:48:20.610Z,70.26
2023-03-21T22:50:48.033Z,70.15
2023-03-21T22:53:14.580Z,70.00
2023-03-21T22:55:40.965Z,69.86
2023-03-21T22:58:07.432Z,69.89
2023-03-21T23:00:33.970Z,69.81
2023-03-21T23:03:00.417Z,69.91
2023-03-21T23:05:26.851Z,69.78
2023-03-21T23:07:53.249Z,69.75
2023-03-21T23:10:19.847Z,70.14
2023-03-21T23:12:46.469Z,69.97
2023-03-21T23:15:12.872Z,69.88
2023-03-21T23:17:39.390Z,69.81
2023-03-21T23:20:08.165Z,70.22
2023-03-21T23:22:35.819Z,70.45
2023-03-21T23:25:02.593Z,70.48
2023-03-21T23:27:29.257Z,70.59
2023-03-21T23:29:56.941Z,70.80
2023-03-21T23:32:23.773Z,70.98
2023-03-21T23:34:50.213Z,71.08
2023-03-21T23:37:16.660Z,71.38
2023-03-21T23:39:45.178Z,71.43
2023-03-21T23:42:11.798Z,71.63
2023-03-21T23:44:38.283Z,71.77
2023-03-21T23:47:04.725Z,71.70
2023-03-21T23:49:33.705Z,71.71
2023-03-21T23:52:00.236Z,72.07
2023-03-21T23:54:26.700Z,72.01
2023-03-21T23:56:53.273Z,72.24
2023-03-21T23:59:19.683Z,72.22
